createdAt,value
2022-10-01T00:01:10.177Z,61.00
2022-10-01T00:03:36.748Z,82.80
2022-10-01T00:06:03.040Z,92.25
2022-10-01T00:08:29.359Z,71.80
2022-10-01T00:10:55.668Z,55.80
2022-10-01T00:13:21.915Z,47.50
2022-10-01T00:15:48.171Z,53.30
2022-10-01T00:18:14.420Z,52.80
2022-10-01T00:20:43.439Z,52.55
2022-10-01T00:23:09.694Z,61.67
2022-10-01T00:25:36.104Z,59.05
2022-10-01T00:28:02.460Z,58.58
2022-10-01T00:30:28.772Z,57.95
2022-10-01T00:32:55.091Z,55.38
2022-10-01T00:35:22.419Z,60.85
2022-10-01T00:37:50.511Z,72.63
2022-10-01T00:40:16.774Z,80.03
2022-10-01T00:42:43.591Z,80.38
2022-10-01T00:45:09.844Z,64.28
2022-10-01T00:47:36.120Z,58.55
2022-10-01T00:50:02.460Z,49.65
2022-10-01T00:52:29.017Z,58.92
2022-10-01T00:54:55.766Z,52.92
2022-10-01T00:57:22.946Z,52.53
2022-10-01T00:59:49.581Z,56.93
2022-10-01T01:02:15.882Z,62.38
2022-10-01T01:04:42.180Z,72.45
2022-10-01T01:07:08.440Z,78.25
2022-10-01T01:09:34.716Z,64.32
2022-10-01T01:12:01.327Z,87.93
2022-10-01T01:14:27.596Z,103.68
2022-10-01T01:16:53.839Z,110.90
2022-10-01T01:19:20.695Z,95.50
2022-10-01T01:21:47.436Z,88.47
2022-10-01T01:24:13.715Z,92.38
2022-10-01T01:26:42.200Z,107.03
2022-10-01T01:29:08.518Z,74.75
2022-10-01T01:31:34.995Z,68.63
2022-10-01T01:34:01.413Z,66.20
2022-10-01T01:36:27.744Z,68.03
2022-10-01T01:38:56.988Z,63.60
2022-10-01T01:41:23.289Z,63.30
2022-10-01T01:43:49.558Z,61.13
2022-10-01T01:46:17.634Z,58.20
2022-10-01T01:48:47.499Z,56.03
2022-10-01T01:51:13.760Z,51.17
2022-10-01T01:53:40.026Z,48.38
2022-10-01T01:56:06.270Z,52.50
2022-10-01T01:58:32.524Z,50.20
2022-10-01T02:00:58.770Z,52.33
2022-10-01T02:03:25.024Z,57.42
2022-10-01T02:05:52.317Z,57.35
2022-10-01T02:08:18.580Z,56.05
2022-10-01T02:10:44.822Z,54.35
2022-10-01T02:13:11.075Z,52.00
2022-10-01T02:15:37.557Z,44.55
2022-10-01T02:18:03.818Z,40.70
2022-10-01T02:20:30.102Z,37.35
2022-10-01T02:22:58.283Z,40.13
2022-10-01T02:25:26.836Z,38.55
2022-10-01T02:27:53.541Z,41.22
2022-10-01T02:30:19.885Z,44.58
2022-10-01T02:32:46.136Z,44.30
2022-10-01T02:35:12.401Z,41.63
2022-10-01T02:37:38.691Z,47.20
2022-10-01T02:40:04.942Z,43.30
2022-10-01T02:42:31.208Z,45.28
2022-10-01T02:44:57.506Z,44.90
2022-10-01T02:47:23.746Z,42.95
2022-10-01T02:49:50.016Z,44.20
2022-10-01T02:52:16.306Z,43.30
2022-10-01T02:54:42.576Z,43.70
2022-10-01T02:57:24.406Z,45.20
2022-10-01T02:59:50.666Z,44.67
2022-10-01T03:02:16.999Z,47.08
2022-10-01T03:04:43.359Z,45.63
2022-10-01T03:07:09.612Z,44.78
2022-10-01T03:09:36.774Z,43.47
2022-10-01T03:12:02.971Z,42.50
2022-10-01T03:14:29.260Z,44.63
2022-10-01T03:16:55.506Z,44.95
2022-10-01T03:19:21.907Z,42.17
2022-10-01T03:21:48.299Z,42.85
2022-10-01T03:24:14.574Z,41.05
2022-10-01T03:26:40.819Z,41.22
2022-10-01T03:29:07.085Z,45.10
2022-10-01T03:31:33.697Z,44.50
2022-10-01T03:34:00.586Z,42.63
2022-10-01T03:36:26.834Z,40.50
2022-10-01T03:38:53.096Z,41.50
2022-10-01T03:41:19.334Z,39.95
2022-10-01T03:43:45.574Z,39.83
2022-10-01T03:46:11.912Z,42.03
2022-10-01T03:48:38.209Z,42.67
2022-10-01T03:51:04.450Z,50.42
2022-10-01T03:53:33.725Z,55.13
2022-10-01T03:55:59.962Z,49.42
2022-10-01T03:58:26.214Z,50.55
2022-10-01T04:00:52.954Z,50.00
2022-10-01T04:03:19.289Z,50.78
2022-10-01T04:05:45.567Z,53.03
2022-10-01T04:08:11.864Z,51.47
2022-10-01T04:10:38.119Z,51.53
2022-10-01T04:13:04.716Z,54.72
2022-10-01T04:15:30.996Z,54.85
2022-10-01T04:17:57.972Z,53.45
2022-10-01T04:20:24.452Z,55.78
2022-10-01T04:22:50.712Z,52.50
2022-10-01T04:25:16.983Z,52.92
2022-10-01T04:27:43.303Z,57.28
2022-10-01T04:30:09.628Z,56.20
2022-10-01T04:32:35.870Z,44.97
2022-10-01T04:35:04.316Z,54.97
2022-10-01T04:37:31.103Z,70.35
2022-10-01T04:39:57.384Z,72.18
2022-10-01T04:42:23.659Z,68.57
2022-10-01T04:44:49.855Z,77.35
2022-10-01T04:47:16.119Z,68.15
2022-10-01T04:49:42.517Z,73.32
2022-10-01T04:52:08.758Z,73.60
2022-10-01T04:54:35.008Z,70.13
2022-10-01T04:57:01.250Z,71.32
2022-10-01T04:59:27.500Z,66.78
2022-10-01T05:01:53.884Z,77.30
2022-10-01T05:04:20.174Z,74.65
2022-10-01T05:06:46.406Z,69.82
2022-10-01T05:09:12.656Z,82.68
2022-10-01T05:11:39.047Z,72.93
2022-10-01T05:14:05.311Z,71.53
2022-10-01T05:16:31.571Z,78.57
2022-10-01T05:18:58.886Z,72.32
2022-10-01T05:21:25.142Z,141.27
2022-10-01T05:23:51.744Z,95.00
2022-10-01T05:26:18.006Z,100.63
2022-10-01T05:28:47.411Z,94.88
2022-10-01T05:31:14.023Z,71.43
2022-10-01T05:33:40.350Z,65.72
2022-10-01T05:36:06.852Z,73.85
2022-10-01T05:38:37.248Z,72.97
2022-10-01T05:41:03.632Z,66.20
2022-10-01T05:43:30.566Z,63.10
2022-10-01T05:45:56.862Z,74.28
2022-10-01T05:48:23.199Z,66.70
2022-10-01T05:50:49.820Z,66.28
2022-10-01T05:53:16.126Z,63.83
2022-10-01T05:55:42.936Z,66.82
2022-10-01T05:58:12.013Z,70.10
2022-10-01T06:00:38.258Z,67.18
2022-10-01T06:03:04.746Z,70.68
2022-10-01T06:05:31.323Z,72.53
2022-10-01T06:07:57.603Z,69.50
2022-10-01T06:10:23.882Z,73.57
2022-10-01T06:12:50.163Z,72.05
2022-10-01T06:15:16.414Z,76.05
2022-10-01T06:17:45.741Z,69.45
2022-10-01T06:20:12.859Z,79.68
2022-10-01T06:22:39.037Z,78.27
2022-10-01T06:25:05.278Z,84.97
2022-10-01T06:27:31.543Z,75.38
2022-10-01T06:29:57.796Z,77.93
2022-10-01T06:32:24.043Z,81.38
2022-10-01T06:34:50.292Z,77.15
2022-10-01T06:37:17.107Z,75.95
2022-10-01T06:39:44.516Z,75.90
2022-10-01T06:42:10.779Z,85.45
2022-10-01T06:44:37.026Z,86.05
2022-10-01T06:47:03.279Z,87.50
2022-10-01T06:49:29.536Z,89.97
2022-10-01T06:52:14.168Z,88.65
2022-10-01T06:54:40.426Z,92.05
2022-10-01T06:57:07.011Z,95.20
2022-10-01T06:59:33.267Z,96.22
2022-10-01T07:01:59.585Z,102.20
2022-10-01T07:04:25.879Z,102.22
2022-10-01T07:06:52.135Z,105.32
2022-10-01T07:09:18.414Z,100.10
2022-10-01T07:11:44.682Z,84.03
2022-10-01T07:14:11.015Z,88.43
2022-10-01T07:16:37.324Z,89.07
2022-10-01T07:19:03.579Z,73.50
2022-10-01T07:21:29.984Z,66.55
2022-10-01T07:23:56.243Z,68.45
2022-10-01T07:26:22.507Z,61.40
2022-10-01T07:28:48.756Z,67.78
2022-10-01T07:31:15.039Z,62.75
2022-10-01T07:33:41.320Z,68.32
2022-10-01T07:36:07.588Z,65.25
2022-10-01T07:38:33.834Z,69.15
2022-10-01T07:41:02.433Z,71.78
2022-10-01T07:43:28.688Z,68.50
2022-10-01T07:48:46.157Z,62.08
2022-10-01T07:51:12.409Z,73.18
2022-10-01T07:53:38.684Z,77.05
2022-10-01T07:56:04.983Z,83.15
2022-10-01T07:58:31.295Z,90.13
2022-10-01T08:01:00.042Z,93.38
2022-10-01T08:03:26.363Z,84.75
2022-10-01T08:05:55.495Z,85.45
2022-10-01T08:08:21.755Z,90.85
2022-10-01T08:10:49.992Z,87.22
2022-10-01T08:13:16.262Z,87.13
2022-10-01T08:15:42.588Z,83.07
2022-10-01T08:18:08.849Z,91.60
2022-10-01T08:20:35.119Z,87.18
2022-10-01T08:23:01.381Z,103.60
2022-10-01T08:25:27.727Z,102.47
2022-10-01T08:27:54.034Z,111.13
2022-10-01T08:30:20.328Z,93.10
2022-10-01T08:32:46.585Z,126.80
2022-10-01T08:35:12.888Z,103.93
2022-10-01T08:37:39.395Z,111.57
2022-10-01T08:40:05.978Z,96.00
2022-10-01T08:42:33.306Z,126.53
2022-10-01T08:45:01.378Z,74.88
2022-10-01T08:49:53.826Z,89.63
2022-10-01T08:52:20.066Z,84.20
2022-10-01T08:54:46.469Z,75.15
2022-10-01T08:57:12.714Z,69.38
2022-10-01T08:59:39.367Z,69.18
2022-10-01T09:02:05.606Z,78.63
2022-10-01T09:04:31.979Z,83.95
2022-10-01T09:06:58.271Z,72.32
2022-10-01T09:09:24.553Z,64.50
2022-10-01T09:11:50.823Z,58.28
2022-10-01T09:14:17.079Z,60.45
2022-10-01T09:16:43.439Z,54.92
2022-10-01T09:19:10.612Z,56.17
2022-10-01T09:21:37.036Z,51.93
2022-10-01T09:24:03.401Z,49.22
2022-10-01T09:26:30.029Z,73.30
2022-10-01T09:28:56.326Z,92.78
2022-10-01T09:31:22.660Z,63.05
2022-10-01T09:33:48.966Z,71.43
2022-10-01T09:36:15.223Z,106.50
2022-10-01T09:38:41.543Z,144.25
2022-10-01T09:41:07.977Z,146.75
2022-10-01T09:43:34.222Z,109.03
2022-10-01T09:46:00.601Z,74.88
2022-10-01T09:48:27.104Z,56.65
2022-10-01T09:50:56.023Z,50.33
2022-10-01T09:53:22.291Z,48.45
2022-10-01T09:55:48.578Z,59.88
2022-10-01T09:58:14.835Z,58.78
2022-10-01T10:00:41.495Z,143.63
2022-10-01T10:03:11.209Z,81.90
2022-10-01T10:05:38.083Z,48.33
2022-10-01T10:08:04.571Z,51.60
2022-10-01T10:10:30.851Z,50.78
2022-10-01T10:12:57.404Z,52.88
2022-10-01T10:15:26.125Z,50.30
2022-10-01T10:17:52.478Z,62.78
2022-10-01T10:20:18.818Z,96.90
2022-10-01T10:22:45.081Z,95.40
2022-10-01T10:25:11.322Z,72.97
2022-10-01T10:27:37.591Z,49.90
2022-10-01T10:30:04.067Z,62.28
2022-10-01T10:32:30.329Z,62.83
2022-10-01T10:35:02.026Z,52.88
2022-10-01T10:37:29.299Z,58.65
2022-10-01T10:39:55.555Z,60.20
2022-10-01T10:42:23.030Z,50.90
2022-10-01T10:44:49.291Z,52.05
2022-10-01T10:47:15.571Z,49.22
2022-10-01T10:49:41.831Z,59.42
2022-10-01T10:52:08.225Z,66.03
2022-10-01T10:54:37.511Z,52.38
2022-10-01T10:57:03.776Z,53.03
2022-10-01T10:59:31.642Z,54.58
2022-10-01T11:01:58.018Z,56.30
2022-10-01T11:04:24.958Z,82.38
2022-10-01T11:06:51.237Z,57.38
2022-10-01T11:09:17.499Z,54.80
2022-10-01T11:11:43.800Z,54.75
2022-10-01T11:14:10.301Z,62.17
2022-10-01T11:16:37.122Z,67.97
2022-10-01T11:19:03.595Z,60.27
2022-10-01T11:21:29.876Z,58.45
2022-10-01T11:23:56.210Z,49.03
2022-10-01T11:26:22.479Z,54.20
2022-10-01T11:28:48.736Z,76.53
2022-10-01T11:31:15.058Z,50.35
2022-10-01T11:33:44.865Z,61.30
2022-10-01T11:36:11.155Z,84.65
2022-10-01T11:38:37.783Z,61.63
2022-10-01T11:41:04.227Z,84.90
2022-10-01T11:43:30.483Z,106.75
2022-10-01T11:45:56.787Z,97.75
2022-10-01T11:48:25.448Z,57.88
2022-10-01T11:50:51.692Z,78.22
2022-10-01T11:53:18.091Z,134.07
2022-10-01T11:56:02.882Z,106.63
2022-10-01T11:58:47.684Z,52.38
2022-10-01T12:01:14.187Z,48.72
2022-10-01T12:03:40.444Z,48.50
2022-10-01T12:06:09.355Z,50.92
2022-10-01T12:08:36.580Z,58.50
2022-10-01T12:11:02.834Z,58.17
2022-10-01T12:13:29.139Z,59.75
2022-10-01T12:15:56.695Z,53.38
2022-10-01T12:18:22.986Z,47.85
2022-10-01T12:20:49.255Z,50.38
2022-10-01T12:23:17.780Z,77.28
2022-10-01T12:25:44.032Z,59.75
2022-10-01T12:28:11.326Z,46.58
2022-10-01T12:30:37.626Z,52.65
2022-10-01T12:33:04.753Z,49.30
2022-10-01T12:35:35.268Z,56.17
2022-10-01T12:38:01.545Z,59.55
2022-10-01T12:40:30.483Z,90.57
2022-10-01T12:42:59.885Z,52.75
2022-10-01T12:45:28.948Z,50.42
2022-10-01T12:47:55.214Z,70.63
2022-10-01T12:50:21.775Z,73.82
2022-10-01T12:52:48.032Z,87.65
2022-10-01T12:55:14.298Z,56.72
2022-10-01T12:57:40.748Z,55.78
2022-10-01T13:00:07.893Z,58.20
2022-10-01T13:02:34.220Z,73.78
2022-10-01T13:05:00.482Z,84.00
2022-10-01T13:07:26.961Z,73.15
2022-10-01T13:09:53.231Z,59.05
2022-10-01T13:12:19.491Z,61.30
2022-10-01T13:14:45.733Z,81.20
2022-10-01T13:17:12.058Z,83.60
2022-10-01T13:19:38.320Z,91.65
2022-10-01T13:22:08.560Z,91.25
2022-10-01T13:24:34.854Z,93.07
2022-10-01T13:27:01.333Z,99.10
2022-10-01T13:29:27.582Z,108.03
2022-10-01T13:31:55.063Z,110.82
2022-10-01T13:34:22.023Z,114.88
2022-10-01T13:36:48.311Z,90.28
2022-10-01T13:39:14.577Z,84.35
2022-10-01T13:41:40.820Z,78.68
2022-10-01T13:44:07.929Z,91.35
2022-10-01T13:46:34.365Z,94.73
2022-10-01T13:49:00.796Z,103.85
2022-10-01T13:51:27.047Z,110.35
2022-10-01T13:53:53.412Z,113.47
2022-10-01T13:56:19.662Z,111.78
2022-10-01T13:58:46.004Z,109.68
2022-10-01T14:01:15.024Z,112.28
2022-10-01T14:03:42.454Z,112.07
2022-10-01T14:06:08.699Z,98.30
2022-10-01T14:08:35.079Z,100.47
2022-10-01T14:11:20.182Z,110.50
2022-10-01T14:14:04.946Z,102.38
2022-10-01T14:16:31.645Z,106.03
2022-10-01T14:18:58.177Z,110.82
2022-10-01T14:21:25.691Z,110.45
2022-10-01T14:23:51.939Z,112.13
2022-10-01T14:26:18.242Z,108.13
2022-10-01T14:28:44.488Z,120.95
2022-10-01T14:31:10.786Z,136.00
2022-10-01T14:33:37.178Z,133.02
2022-10-01T14:36:03.439Z,136.45
2022-10-01T14:38:29.758Z,147.75
2022-10-01T14:40:56.034Z,148.35
2022-10-01T14:43:22.311Z,143.55
2022-10-01T14:45:48.591Z,147.57
2022-10-01T14:48:14.875Z,148.65
2022-10-01T14:50:41.118Z,142.20
2022-10-01T14:53:08.611Z,128.75
2022-10-01T14:55:34.864Z,132.63
2022-10-01T14:58:01.148Z,137.52
2022-10-01T15:00:27.701Z,123.32
2022-10-01T15:02:53.983Z,120.10
2022-10-01T15:05:20.556Z,115.50
2022-10-01T15:07:47.253Z,113.85
2022-10-01T15:10:13.520Z,114.38
2022-10-01T15:12:39.814Z,115.70
2022-10-01T15:15:06.074Z,102.50
2022-10-01T15:17:32.346Z,111.50
2022-10-01T15:19:58.655Z,111.47
2022-10-01T15:22:26.224Z,111.90
2022-10-01T15:24:52.753Z,112.70
2022-10-01T15:27:18.997Z,118.07
2022-10-01T15:29:45.279Z,109.85
2022-10-01T15:32:11.814Z,112.38
2022-10-01T15:34:38.204Z,106.95
2022-10-01T15:37:04.458Z,95.35
2022-10-01T15:39:30.717Z,114.43
2022-10-01T15:41:56.979Z,122.72
2022-10-01T15:44:23.233Z,131.25
2022-10-01T15:46:49.504Z,144.57
2022-10-01T15:49:15.895Z,147.45
2022-10-01T15:51:42.154Z,192.45
2022-10-01T15:54:08.731Z,122.15
2022-10-01T15:56:35.494Z,147.60
2022-10-01T15:59:02.027Z,107.95
2022-10-01T16:01:28.324Z,59.63
2022-10-01T16:03:54.674Z,119.43
2022-10-01T16:06:20.958Z,200.23
2022-10-01T16:08:47.370Z,64.70
2022-10-01T16:11:13.645Z,57.63
2022-10-01T16:13:39.896Z,66.90
2022-10-01T16:16:06.684Z,71.90
2022-10-01T16:18:34.685Z,74.30
2022-10-01T16:21:00.942Z,69.18
2022-10-01T16:23:27.195Z,69.78
2022-10-01T16:25:53.484Z,77.47
2022-10-01T16:28:19.833Z,63.22
2022-10-01T16:30:46.137Z,61.95
2022-10-01T16:33:12.401Z,97.82
2022-10-01T16:35:40.650Z,148.73
2022-10-01T16:38:08.275Z,77.75
2022-10-01T16:40:34.580Z,53.80
2022-10-01T16:43:00.822Z,49.15
2022-10-01T16:45:27.741Z,158.45
2022-10-01T16:47:54.151Z,100.38
2022-10-01T16:50:21.344Z,79.35
2022-10-01T16:52:47.600Z,76.70
2022-10-01T16:55:13.860Z,116.70
2022-10-01T16:57:40.644Z,109.32
2022-10-01T17:00:06.908Z,99.55
2022-10-01T17:02:33.167Z,102.18
2022-10-01T17:05:00.769Z,110.75
2022-10-01T17:07:27.021Z,105.03
2022-10-01T17:09:53.287Z,102.40
2022-10-01T17:12:19.706Z,101.22
2022-10-01T17:14:45.972Z,116.68
2022-10-01T17:17:12.219Z,118.47
2022-10-01T17:19:38.507Z,107.75
2022-10-01T17:22:04.755Z,88.35
2022-10-01T17:24:32.565Z,102.22
2022-10-01T17:26:58.820Z,95.20
2022-10-01T17:29:25.082Z,168.60
2022-10-01T17:31:53.143Z,82.13
2022-10-01T17:34:20.512Z,70.00
2022-10-01T17:36:46.763Z,53.30
2022-10-01T17:39:13.018Z,52.17
2022-10-01T17:41:39.307Z,52.83
2022-10-01T17:44:05.566Z,86.20
2022-10-01T17:46:31.915Z,127.53
2022-10-01T17:48:58.387Z,85.85
2022-10-01T17:51:25.741Z,68.93
2022-10-01T17:53:52.601Z,59.38
2022-10-01T17:56:18.850Z,60.63
2022-10-01T17:58:46.062Z,69.47
2022-10-01T18:01:13.382Z,85.47
2022-10-01T18:03:39.799Z,82.47
2022-10-01T18:06:07.538Z,80.57
2022-10-01T18:08:54.123Z,82.22
2022-10-01T18:11:20.287Z,77.28
2022-10-01T18:13:46.564Z,66.15
2022-10-01T18:16:16.056Z,65.70
2022-10-01T18:21:32.678Z,73.75
2022-10-01T18:24:03.427Z,63.88
2022-10-01T18:26:30.642Z,54.13
2022-10-01T18:28:56.918Z,62.53
2022-10-01T18:31:23.264Z,69.00
2022-10-01T18:33:49.647Z,59.63
2022-10-01T18:36:15.939Z,48.58
2022-10-01T18:38:42.833Z,64.25
2022-10-01T18:41:09.953Z,85.38
2022-10-01T18:43:36.198Z,73.00
2022-10-01T18:46:02.512Z,57.25
2022-10-01T18:48:28.906Z,64.13
2022-10-01T18:50:55.156Z,54.45
2022-10-01T18:53:21.417Z,63.03
2022-10-01T18:55:47.668Z,73.22
2022-10-01T18:58:14.978Z,64.35
2022-10-01T19:00:41.653Z,55.20
2022-10-01T19:03:08.030Z,56.80
2022-10-01T19:05:34.345Z,53.35
2022-10-01T19:08:00.624Z,63.22
2022-10-01T19:10:26.879Z,72.82
2022-10-01T19:12:53.141Z,70.63
2022-10-01T19:15:19.386Z,63.80
2022-10-01T19:17:45.675Z,56.28
2022-10-01T19:20:11.968Z,49.40
2022-10-01T19:22:38.238Z,48.67
2022-10-01T19:25:04.491Z,49.15
2022-10-01T19:27:30.759Z,47.17
2022-10-01T19:29:57.442Z,46.30
2022-10-01T19:32:23.728Z,44.72
2022-10-01T19:34:49.984Z,49.65
2022-10-01T19:37:16.262Z,48.10
2022-10-01T19:39:42.539Z,47.25
2022-10-01T19:42:08.798Z,46.83
2022-10-01T19:44:35.067Z,47.08
2022-10-01T19:47:01.588Z,45.72
2022-10-01T19:49:27.893Z,49.13
2022-10-01T19:51:54.163Z,48.35
2022-10-01T19:54:21.041Z,49.70
2022-10-01T19:56:47.301Z,50.17
2022-10-01T19:59:14.490Z,51.17
2022-10-01T20:01:40.777Z,49.78
2022-10-01T20:04:07.075Z,48.60
2022-10-01T20:06:33.639Z,49.15
2022-10-01T20:09:00.174Z,44.47
2022-10-01T20:11:26.413Z,48.78
2022-10-01T20:13:52.674Z,75.35
2022-10-01T20:16:19.190Z,63.45
2022-10-01T20:18:45.495Z,63.78
2022-10-01T20:21:11.779Z,58.22
2022-10-01T20:23:38.667Z,54.03
2022-10-01T20:26:05.139Z,62.45
2022-10-01T20:28:31.430Z,51.78
2022-10-01T20:30:58.252Z,48.97
2022-10-01T20:33:24.564Z,55.17
2022-10-01T20:35:50.835Z,53.03
2022-10-01T20:38:17.352Z,56.08
2022-10-01T20:40:43.866Z,69.95
2022-10-01T20:43:10.611Z,67.40
2022-10-01T20:45:36.897Z,67.07
2022-10-01T20:48:03.233Z,54.83
2022-10-01T20:50:29.504Z,58.33
2022-10-01T20:52:56.148Z,61.58
2022-10-01T20:55:29.074Z,66.50
2022-10-01T20:57:55.724Z,62.92
2022-10-01T21:00:23.162Z,64.15
2022-10-01T21:02:50.899Z,66.18
2022-10-01T21:05:17.143Z,69.05
2022-10-01T21:07:43.406Z,67.10
2022-10-01T21:10:09.719Z,67.72
2022-10-01T21:12:36.108Z,71.60
2022-10-01T21:15:02.452Z,76.05
2022-10-01T21:17:28.739Z,56.60
2022-10-01T21:19:54.996Z,59.75
2022-10-01T21:22:21.292Z,62.08
2022-10-01T21:24:47.571Z,56.60
2022-10-01T21:27:13.829Z,53.95
2022-10-01T21:29:40.094Z,50.30
2022-10-01T21:32:06.351Z,59.83
2022-10-01T21:34:32.606Z,105.60
2022-10-01T21:36:58.846Z,50.20
2022-10-01T21:39:25.108Z,51.88
2022-10-01T21:41:53.577Z,59.05
2022-10-01T21:44:19.867Z,48.35
2022-10-01T21:46:46.123Z,56.40
2022-10-01T21:49:13.439Z,52.40
2022-10-01T21:51:39.707Z,55.63
2022-10-01T21:54:05.976Z,58.47
2022-10-01T21:56:32.230Z,57.90
2022-10-01T21:58:58.514Z,65.78
2022-10-01T22:01:24.842Z,135.43
2022-10-01T22:03:51.264Z,128.60
2022-10-01T22:06:17.510Z,132.23
2022-10-01T22:08:43.768Z,113.97
2022-10-01T22:11:10.043Z,125.15
2022-10-01T22:13:36.303Z,137.40
2022-10-01T22:16:02.662Z,124.35
2022-10-01T22:18:29.007Z,127.93
2022-10-01T22:20:55.255Z,128.00
2022-10-01T22:23:21.521Z,90.00
2022-10-01T22:25:47.813Z,56.05
2022-10-01T22:28:14.124Z,54.83
2022-10-01T22:30:40.475Z,97.68
2022-10-01T22:33:06.752Z,50.03
2022-10-01T22:35:32.999Z,61.83
2022-10-01T22:37:59.395Z,58.35
2022-10-01T22:40:25.636Z,73.70
2022-10-01T22:42:52.023Z,68.97
2022-10-01T22:45:18.288Z,55.47
2022-10-01T22:47:44.550Z,73.43
2022-10-01T22:50:10.816Z,84.13
2022-10-01T22:52:37.092Z,72.32
2022-10-01T22:55:03.358Z,64.13
2022-10-01T22:57:29.603Z,63.72
2022-10-01T22:59:55.878Z,65.80
2022-10-01T23:02:22.218Z,62.53
2022-10-01T23:04:48.490Z,61.60
2022-10-01T23:07:14.751Z,64.22
2022-10-01T23:09:40.999Z,63.72
2022-10-01T23:12:07.243Z,60.13
2022-10-01T23:14:33.486Z,61.67
2022-10-01T23:16:59.887Z,63.55
2022-10-01T23:19:26.147Z,67.30
2022-10-01T23:21:52.460Z,64.63
2022-10-01T23:24:18.719Z,59.17
2022-10-01T23:26:44.965Z,61.45
2022-10-01T23:29:11.223Z,63.83
2022-10-01T23:31:37.579Z,65.13
2022-10-01T23:34:03.864Z,59.35
2022-10-01T23:36:30.123Z,67.55
2022-10-01T23:38:57.173Z,71.65
2022-10-01T23:41:23.417Z,82.28
2022-10-01T23:43:49.827Z,98.25
2022-10-01T23:46:16.166Z,116.90
2022-10-01T23:48:42.456Z,122.10
2022-10-01T23:51:08.720Z,133.82
2022-10-01T23:53:34.982Z,124.88
2022-10-01T23:56:19.996Z,121.88
2022-10-01T23:58:46.415Z,122.00
